createdAt,value
2018-04-13T00:00:07.382Z,13.10
2018-04-13T00:02:36.690Z,12.70
2018-04-13T00:05:05.996Z,12.65
2018-04-13T00:07:35.300Z,12.27
2018-04-13T00:10:05.202Z,11.40
2018-04-13T00:12:34.496Z,12.05
2018-04-13T00:15:03.801Z,12.18
2018-04-13T00:17:33.099Z,11.48
2018-04-13T00:20:02.399Z,11.32
2018-04-13T00:22:31.731Z,11.60
2018-04-13T00:25:01.033Z,10.35
2018-04-13T00:27:30.346Z,11.23
2018-04-13T00:30:00.411Z,12.48
2018-04-13T00:32:30.550Z,12.10
2018-04-13T00:34:59.861Z,11.23
2018-04-13T00:37:30.161Z,11.32
2018-04-13T00:39:59.455Z,10.95
2018-04-13T00:42:28.765Z,11.45
2018-04-13T00:44:58.053Z,11.80
2018-04-13T00:47:27.372Z,11.25
2018-04-13T00:49:56.685Z,12.00
2018-04-13T00:52:25.974Z,11.02
2018-04-13T00:54:55.305Z,11.55
2018-04-13T00:57:24.602Z,12.48
2018-04-13T00:59:53.891Z,11.93
2018-04-13T01:02:23.218Z,13.07
2018-04-13T01:04:53.274Z,13.32
2018-04-13T01:07:23.361Z,12.27
2018-04-13T01:09:53.424Z,11.30
2018-04-13T01:12:22.708Z,12.85
2018-04-13T01:14:52.005Z,11.15
2018-04-13T01:17:21.305Z,12.32
2018-04-13T01:19:50.598Z,12.60
2018-04-13T01:22:19.897Z,13.05
2018-04-13T01:24:49.201Z,12.00
2018-04-13T01:27:18.494Z,11.65
2018-04-13T01:29:47.803Z,11.73
2018-04-13T01:32:17.096Z,12.65
2018-04-13T01:34:46.398Z,12.68
2018-04-13T01:37:15.678Z,11.15
2018-04-13T01:39:45.746Z,11.68
2018-04-13T01:42:15.072Z,11.00
2018-04-13T01:44:44.376Z,11.90
2018-04-13T01:47:13.652Z,11.45
2018-04-13T01:49:42.966Z,12.50
2018-04-13T01:52:12.338Z,12.65
2018-04-13T01:54:41.625Z,10.80
2018-04-13T01:57:10.932Z,11.12
2018-04-13T01:59:40.233Z,12.50
2018-04-13T02:02:09.529Z,12.05
2018-04-13T02:04:38.829Z,11.98
2018-04-13T02:07:08.118Z,13.13
2018-04-13T02:09:37.452Z,11.35
2018-04-13T02:12:06.725Z,12.07
2018-04-13T02:14:36.027Z,11.90
2018-04-13T02:17:05.308Z,12.15
2018-04-13T02:19:34.626Z,13.60
2018-04-13T02:22:03.913Z,11.63
2018-04-13T02:24:33.212Z,12.90
2018-04-13T02:27:03.290Z,12.60
2018-04-13T02:29:32.608Z,12.48
2018-04-13T02:32:01.907Z,13.23
2018-04-13T02:34:31.354Z,13.30
2018-04-13T02:37:00.518Z,13.18
2018-04-13T02:39:30.580Z,12.23
2018-04-13T02:41:59.891Z,10.88
2018-04-13T02:44:29.177Z,12.48
2018-04-13T02:46:58.490Z,11.60
2018-04-13T02:49:27.790Z,11.15
2018-04-13T02:51:57.124Z,12.48
2018-04-13T02:54:26.641Z,12.70
2018-04-13T02:56:55.928Z,12.50
2018-04-13T02:59:25.271Z,11.80
2018-04-13T03:01:55.302Z,12.18
2018-04-13T03:04:24.611Z,11.48
2018-04-13T03:06:53.910Z,10.23
2018-04-13T03:09:23.203Z,11.63
2018-04-13T03:11:52.491Z,12.40
2018-04-13T03:14:21.792Z,10.60
2018-04-13T03:16:51.094Z,10.15
2018-04-13T03:19:20.400Z,10.35
2018-04-13T03:21:49.936Z,9.10
2018-04-13T03:24:19.227Z,10.80
2018-04-13T03:26:48.563Z,10.25
2018-04-13T03:29:17.844Z,9.13
2018-04-13T03:31:47.134Z,9.35
2018-04-13T03:34:16.435Z,11.07
2018-04-13T03:36:45.712Z,10.68
2018-04-13T03:39:15.014Z,9.23
2018-04-13T03:41:44.314Z,9.27
2018-04-13T03:44:13.607Z,9.45
2018-04-13T03:46:42.905Z,9.27
2018-04-13T03:49:12.194Z,11.12
2018-04-13T03:51:42.275Z,11.88
2018-04-13T03:54:11.562Z,9.40
2018-04-13T03:56:41.973Z,10.82
2018-04-13T03:59:11.327Z,9.85
2018-04-13T04:01:40.607Z,10.27
2018-04-13T04:04:10.773Z,12.07
2018-04-13T04:06:40.086Z,13.65
2018-04-13T04:09:09.382Z,11.20
2018-04-13T04:11:38.684Z,11.07
2018-04-13T04:14:07.990Z,11.95
2018-04-13T04:16:37.283Z,14.57
2018-04-13T04:19:06.578Z,14.50
2018-04-13T04:21:54.160Z,14.90
2018-04-13T04:24:41.259Z,12.70
2018-04-13T04:27:10.557Z,12.60
2018-04-13T04:29:39.881Z,13.20
2018-04-13T04:32:09.187Z,10.68
2018-04-13T04:34:43.095Z,9.00
2018-04-13T04:37:12.378Z,10.80
2018-04-13T04:39:41.666Z,10.30
2018-04-13T04:42:10.978Z,10.65
2018-04-13T04:44:40.327Z,10.70
2018-04-13T04:47:09.627Z,11.30
2018-04-13T04:49:38.923Z,12.48
2018-04-13T04:52:09.026Z,11.18
2018-04-13T04:54:39.090Z,11.60
2018-04-13T04:57:08.370Z,10.23
2018-04-13T04:59:37.735Z,11.25
2018-04-13T05:02:06.993Z,11.88
2018-04-13T05:04:36.334Z,11.55
2018-04-13T05:07:05.617Z,9.98
2018-04-13T05:09:34.926Z,10.85
2018-04-13T05:12:04.273Z,11.85
2018-04-13T05:14:33.545Z,10.30
2018-04-13T05:17:02.837Z,10.50
2018-04-13T05:19:32.148Z,12.57
2018-04-13T05:22:02.219Z,11.77
2018-04-13T05:24:31.530Z,12.98
2018-04-13T05:27:00.874Z,12.13
2018-04-13T05:29:30.146Z,13.27
2018-04-13T05:31:59.469Z,12.40
2018-04-13T05:34:28.752Z,11.77
2018-04-13T05:36:58.118Z,11.45
2018-04-13T05:39:27.399Z,11.82
2018-04-13T05:41:56.696Z,11.50
2018-04-13T05:44:25.988Z,11.98
2018-04-13T05:46:55.277Z,11.68
2018-04-13T05:49:25.342Z,12.50
2018-04-13T05:51:55.408Z,11.70
2018-04-13T05:54:25.469Z,11.52
2018-04-13T05:56:54.771Z,11.73
2018-04-13T05:59:24.078Z,13.38
2018-04-13T06:01:53.376Z,12.48
2018-04-13T06:04:22.699Z,12.60
2018-04-13T06:06:51.998Z,14.38
2018-04-13T06:09:21.290Z,14.73
2018-04-13T06:11:50.591Z,14.80
2018-04-13T06:14:19.899Z,15.65
2018-04-13T06:16:49.308Z,14.90
2018-04-13T06:19:18.950Z,16.15
2018-04-13T06:21:49.031Z,15.68
2018-04-13T06:24:19.146Z,16.58
2018-04-13T06:26:48.398Z,13.73
2018-04-13T06:29:17.702Z,13.80
2018-04-13T06:31:47.038Z,14.63
2018-04-13T06:34:16.331Z,12.32
2018-04-13T06:36:45.631Z,13.05
2018-04-13T06:39:14.920Z,12.02
2018-04-13T06:41:44.222Z,14.35
2018-04-13T06:44:13.551Z,12.52
2018-04-13T06:46:42.844Z,13.18
2018-04-13T06:49:12.137Z,14.35
2018-04-13T06:51:41.485Z,14.55
2018-04-13T06:54:10.792Z,14.05
2018-04-13T06:56:40.872Z,15.88
2018-04-13T06:59:10.165Z,13.13
2018-04-13T07:01:39.463Z,12.80
2018-04-13T07:04:08.780Z,13.50
2018-04-13T07:06:38.074Z,14.55
2018-04-13T07:09:07.386Z,15.07
2018-04-13T07:11:36.687Z,14.87
2018-04-13T07:14:05.996Z,13.88
2018-04-13T07:16:35.345Z,14.68
2018-04-13T07:19:04.633Z,15.73
2018-04-13T07:21:33.949Z,14.00
2018-04-13T07:24:03.248Z,14.90
2018-04-13T07:26:32.567Z,13.73
2018-04-13T07:29:01.866Z,13.50
2018-04-13T07:31:31.193Z,13.43
2018-04-13T07:34:00.559Z,14.57
2018-04-13T07:36:29.874Z,14.02
2018-04-13T07:38:59.241Z,14.23
2018-04-13T07:41:29.277Z,15.07
2018-04-13T07:43:58.573Z,15.32
2018-04-13T07:46:27.877Z,15.45
2018-04-13T07:48:57.164Z,13.93
2018-04-13T07:51:26.469Z,15.38
2018-04-13T07:53:55.776Z,14.98
2018-04-13T07:56:25.086Z,16.12
2018-04-13T07:58:54.404Z,15.88
2018-04-13T08:01:23.693Z,15.32
2018-04-13T08:03:52.999Z,15.65
2018-04-13T08:06:22.306Z,16.77
2018-04-13T08:08:51.610Z,15.95
2018-04-13T08:11:20.910Z,16.40
2018-04-13T08:13:50.200Z,16.52
2018-04-13T08:16:19.499Z,14.95
2018-04-13T08:18:48.822Z,15.95
2018-04-13T08:21:18.117Z,16.92
2018-04-13T08:23:47.422Z,16.98
2018-04-13T08:26:16.749Z,16.08
2018-04-13T08:28:46.811Z,15.88
2018-04-13T08:31:16.107Z,16.50
2018-04-13T08:33:45.421Z,15.70
2018-04-13T08:36:14.813Z,13.52
2018-04-13T08:38:44.103Z,14.60
2018-04-13T08:41:13.403Z,13.70
2018-04-13T08:43:42.719Z,14.00
2018-04-13T08:46:11.995Z,12.65
2018-04-13T08:48:42.170Z,13.27
2018-04-13T08:51:11.390Z,12.15
2018-04-13T08:53:40.654Z,11.45
2018-04-13T08:56:09.975Z,12.37
2018-04-13T08:58:39.263Z,10.68
2018-04-13T09:01:08.575Z,10.60
2018-04-13T09:03:37.862Z,10.35
2018-04-13T09:06:07.169Z,9.95
2018-04-13T09:08:36.471Z,9.75
2018-04-13T09:11:05.793Z,9.35
2018-04-13T09:13:35.085Z,9.68
2018-04-13T09:16:04.373Z,9.30
2018-04-13T09:18:33.674Z,9.98
2018-04-13T09:21:02.965Z,9.93
2018-04-13T09:23:32.278Z,9.15
2018-04-13T09:26:01.557Z,9.35
2018-04-13T09:28:30.854Z,9.05
2018-04-13T09:31:00.202Z,7.47
2018-04-13T09:33:29.525Z,6.60
2018-04-13T09:35:58.938Z,6.57
2018-04-13T09:38:28.982Z,5.22
2018-04-13T09:40:58.274Z,5.60
2018-04-13T09:43:27.562Z,4.95
2018-04-13T09:45:56.858Z,5.00
2018-04-13T09:48:26.168Z,5.15
2018-04-13T09:53:31.013Z,5.32
2018-04-13T09:56:00.336Z,5.78
2018-04-13T09:58:29.623Z,6.22
2018-04-13T10:01:00.762Z,6.32
2018-04-13T10:03:35.664Z,5.82
2018-04-13T10:06:05.849Z,5.68
2018-04-13T10:08:35.157Z,5.65
2018-04-13T10:11:04.442Z,5.37
2018-04-13T10:13:33.727Z,4.95
2018-04-13T10:16:03.052Z,5.05
2018-04-13T10:18:32.336Z,5.32
2018-04-13T10:21:01.612Z,5.70
2018-04-13T10:23:30.906Z,5.43
2018-04-13T10:26:00.211Z,5.72
2018-04-13T10:28:29.521Z,5.75
2018-04-13T10:30:58.805Z,6.22
2018-04-13T10:33:28.100Z,6.10
2018-04-13T10:35:57.407Z,5.55
2018-04-13T10:38:26.701Z,5.80
2018-04-13T10:40:55.977Z,6.25
2018-04-13T10:43:25.407Z,6.82
2018-04-13T10:45:54.835Z,6.80
2018-04-13T10:48:24.103Z,6.47
2018-04-13T10:50:53.469Z,7.75
2018-04-13T10:53:22.800Z,6.70
2018-04-13T10:55:52.882Z,7.28
2018-04-13T10:58:22.178Z,6.80
2018-04-13T11:00:51.570Z,6.35
2018-04-13T11:03:20.894Z,7.93
2018-04-13T11:05:50.208Z,8.27
2018-04-13T11:08:19.596Z,7.95
2018-04-13T11:10:48.870Z,8.45
2018-04-13T11:13:18.173Z,8.27
2018-04-13T11:15:48.270Z,7.93
2018-04-13T11:18:17.637Z,8.60
2018-04-13T11:20:47.726Z,8.90
2018-04-13T11:23:17.051Z,9.68
2018-04-13T11:25:47.214Z,8.95
2018-04-13T11:28:16.535Z,7.55
2018-04-13T11:30:45.883Z,8.60
2018-04-13T11:33:15.979Z,8.07
2018-04-13T11:35:45.365Z,7.35
2018-04-13T11:38:15.047Z,6.07
2018-04-13T11:40:44.344Z,4.25
2018-04-13T11:43:13.631Z,4.03
2018-04-13T11:45:42.964Z,3.85
2018-04-13T11:48:12.236Z,3.05
2018-04-13T11:50:41.965Z,3.05
2018-04-13T11:53:11.318Z,3.40
2018-04-13T11:55:41.437Z,2.92
2018-04-13T11:58:10.725Z,2.80
2018-04-13T12:00:40.015Z,2.67
2018-04-13T12:03:09.310Z,2.70
2018-04-13T12:05:38.586Z,2.80
2018-04-13T12:08:07.984Z,2.10
2018-04-13T12:10:37.273Z,2.45
2018-04-13T12:13:06.558Z,2.87
2018-04-13T12:15:36.003Z,2.42
2018-04-13T12:18:05.277Z,2.83
2018-04-13T12:20:34.565Z,2.87
2018-04-13T12:23:04.635Z,2.83
2018-04-13T12:25:33.929Z,3.47
2018-04-13T12:28:03.214Z,3.53
2018-04-13T12:30:32.510Z,3.55
2018-04-13T12:33:02.258Z,3.92
2018-04-13T12:35:31.551Z,3.80
2018-04-13T12:38:00.812Z,3.65
2018-04-13T12:40:30.109Z,2.90
2018-04-13T12:42:59.386Z,3.97
2018-04-13T12:45:29.450Z,3.62
2018-04-13T12:47:58.772Z,4.10
2018-04-13T12:50:28.064Z,3.95
2018-04-13T12:52:57.346Z,4.72
2018-04-13T12:55:26.661Z,4.50
2018-04-13T12:57:55.913Z,4.62
2018-04-13T13:00:25.214Z,5.15
2018-04-13T13:02:54.508Z,5.07
2018-04-13T13:05:24.565Z,5.85
2018-04-13T13:07:54.562Z,5.35
2018-04-13T13:10:24.663Z,6.30
2018-04-13T13:12:54.735Z,5.62
2018-04-13T13:15:24.022Z,5.78
2018-04-13T13:17:53.310Z,5.18
2018-04-13T13:20:22.628Z,5.65
2018-04-13T13:22:51.923Z,5.72
2018-04-13T13:25:21.281Z,5.85
2018-04-13T13:27:51.337Z,5.57
2018-04-13T13:30:20.795Z,4.93
2018-04-13T13:32:50.068Z,5.80
2018-04-13T13:35:19.368Z,5.15
2018-04-13T13:37:48.659Z,5.00
2018-04-13T13:40:17.941Z,5.10
2018-04-13T13:42:47.318Z,3.50
2018-04-13T13:45:17.383Z,4.03
2018-04-13T13:47:46.669Z,4.03
2018-04-13T13:50:15.960Z,3.58
2018-04-13T13:52:45.265Z,3.85
2018-04-13T13:55:14.662Z,4.50
2018-04-13T13:57:43.991Z,3.75
2018-04-13T14:00:13.274Z,3.42
2018-04-13T14:02:42.560Z,3.78
2018-04-13T14:05:11.943Z,3.60
2018-04-13T14:07:42.682Z,3.33
2018-04-13T14:10:11.975Z,2.80
2018-04-13T14:12:42.030Z,3.17
2018-04-13T14:15:11.321Z,3.00
2018-04-13T14:17:40.602Z,3.12
2018-04-13T14:20:09.912Z,3.12
2018-04-13T14:22:39.225Z,2.75
2018-04-13T14:25:08.501Z,2.60
2018-04-13T14:27:37.783Z,2.50
2018-04-13T14:30:07.877Z,3.33
2018-04-13T14:32:37.212Z,2.90
2018-04-13T14:35:07.354Z,3.05
2018-04-13T14:37:36.643Z,2.58
2018-04-13T14:40:06.708Z,2.80
2018-04-13T14:42:36.020Z,2.72
2018-04-13T14:45:05.298Z,2.40
2018-04-13T14:47:34.597Z,2.90
2018-04-13T14:50:03.987Z,2.60
2018-04-13T14:52:33.987Z,2.80
2018-04-13T14:55:03.283Z,2.40
2018-04-13T14:57:32.565Z,2.53
2018-04-13T15:00:02.625Z,2.67
2018-04-13T15:02:31.939Z,2.30
2018-04-13T15:05:01.207Z,3.45
2018-04-13T15:07:30.502Z,3.87
2018-04-13T15:09:59.809Z,3.65
2018-04-13T15:12:29.870Z,3.35
2018-04-13T15:14:59.163Z,3.40
2018-04-13T15:17:28.450Z,2.92
2018-04-13T15:19:57.744Z,3.75
2018-04-13T15:22:27.037Z,3.80
2018-04-13T15:24:56.354Z,3.72
2018-04-13T15:27:25.717Z,3.78
2018-04-13T15:29:54.980Z,3.80
2018-04-13T15:32:24.277Z,3.95
2018-04-13T15:34:53.558Z,3.58
2018-04-13T15:37:22.875Z,3.20
2018-04-13T15:39:52.196Z,3.85
2018-04-13T15:42:21.470Z,5.45
2018-04-13T15:44:50.755Z,5.50
2018-04-13T15:47:20.047Z,5.35
2018-04-13T15:49:49.361Z,4.93
2018-04-13T15:52:18.723Z,5.35
2018-04-13T15:54:47.985Z,5.10
2018-04-13T15:57:17.277Z,5.40
2018-04-13T15:59:46.568Z,4.93
2018-04-13T16:02:15.848Z,5.10
2018-04-13T16:04:45.162Z,5.40
2018-04-13T16:07:14.443Z,5.78
2018-04-13T16:09:43.730Z,4.85
2018-04-13T16:12:13.043Z,6.30
2018-04-13T16:14:42.322Z,5.57
2018-04-13T16:17:12.396Z,5.80
2018-04-13T16:19:41.680Z,5.00
2018-04-13T16:22:11.000Z,5.00
2018-04-13T16:24:40.271Z,4.47
2018-04-13T16:27:09.571Z,5.65
2018-04-13T16:29:38.875Z,4.30
2018-04-13T16:32:08.168Z,4.45
2018-04-13T16:34:37.451Z,5.10
2018-04-13T16:37:07.059Z,5.50
2018-04-13T16:39:36.360Z,5.85
2018-04-13T16:42:06.417Z,3.80
2018-04-13T16:44:35.690Z,5.20
2018-04-13T16:47:05.024Z,4.53
2018-04-13T16:49:34.284Z,4.20
2018-04-13T16:52:03.653Z,3.67
2018-04-13T16:54:33.816Z,3.70
2018-04-13T16:57:03.160Z,3.72
2018-04-13T16:59:32.510Z,3.70
2018-04-13T17:02:01.787Z,4.00
2018-04-13T17:04:31.109Z,4.20
2018-04-13T17:07:00.412Z,3.45
2018-04-13T17:09:30.447Z,4.30
2018-04-13T17:11:59.726Z,5.37
2018-04-13T17:14:29.734Z,5.05
2018-04-13T17:16:59.018Z,4.82
2018-04-13T17:19:29.078Z,4.82
2018-04-13T17:21:58.378Z,4.78
2018-04-13T17:24:27.677Z,4.15
2018-04-13T17:26:56.959Z,4.78
2018-04-13T17:29:26.248Z,4.40
2018-04-13T17:31:56.290Z,5.03
2018-04-13T17:34:25.627Z,5.40
2018-04-13T17:36:54.918Z,4.55
2018-04-13T17:39:25.560Z,4.53
2018-04-13T17:41:54.871Z,4.85
2018-04-13T17:44:24.193Z,4.72
2018-04-13T17:46:53.548Z,5.20
2018-04-13T17:49:23.154Z,6.20
2018-04-13T17:51:52.446Z,5.95
2018-04-13T17:54:21.736Z,8.60
2018-04-13T17:56:51.051Z,10.75
2018-04-13T17:59:20.337Z,12.20
2018-04-13T18:01:49.629Z,15.20
2018-04-13T18:04:19.135Z,20.98
2018-04-13T18:06:48.430Z,17.55
2018-04-13T18:09:17.743Z,19.95
2018-04-13T18:11:47.034Z,14.60
2018-04-13T18:14:16.324Z,12.90
2018-04-13T18:16:46.727Z,10.90
2018-04-13T18:19:16.046Z,11.30
2018-04-13T18:21:45.345Z,10.95
2018-04-13T18:24:14.636Z,10.20
2018-04-13T18:26:44.927Z,10.70
2018-04-13T18:29:14.227Z,11.57
2018-04-13T18:31:44.353Z,10.75
2018-04-13T18:34:14.155Z,10.45
2018-04-13T18:36:43.446Z,9.80
2018-04-13T18:39:12.772Z,9.90
2018-04-13T18:41:42.239Z,10.13
2018-04-13T18:44:11.504Z,9.80
2018-04-13T18:46:40.822Z,9.40
2018-04-13T18:49:10.700Z,9.90
2018-04-13T18:51:40.621Z,10.25
2018-04-13T18:54:10.736Z,10.73
2018-04-13T18:56:40.048Z,11.80
2018-04-13T18:59:10.797Z,10.77
2018-04-13T19:01:40.136Z,10.77
2018-04-13T19:04:09.449Z,10.60
2018-04-13T19:06:39.693Z,11.88
2018-04-13T19:09:09.198Z,12.30
2018-04-13T19:11:38.548Z,11.23
2018-04-13T19:14:07.912Z,13.40
2018-04-13T19:16:37.228Z,16.17
2018-04-13T19:19:07.277Z,14.32
2018-04-13T19:21:36.587Z,10.68
2018-04-13T19:24:05.879Z,9.55
2018-04-13T19:26:35.204Z,9.43
2018-04-13T19:29:04.499Z,9.20
2018-04-13T19:31:33.818Z,10.10
2018-04-13T19:34:03.103Z,11.40
2018-04-13T19:36:32.396Z,10.63
2018-04-13T19:39:01.710Z,9.10
2018-04-13T19:41:31.018Z,9.95
2018-04-13T19:44:00.301Z,10.18
2018-04-13T19:46:29.600Z,9.00
2018-04-13T19:48:58.903Z,9.15
2018-04-13T19:51:28.200Z,9.82
2018-04-13T19:53:57.495Z,9.20
2018-04-13T19:56:26.782Z,8.80
2018-04-13T19:58:56.076Z,9.30
2018-04-13T20:01:25.394Z,7.95
2018-04-13T20:03:54.685Z,9.85
2018-04-13T20:06:23.973Z,8.02
2018-04-13T20:08:53.278Z,8.07
2018-04-13T20:11:22.581Z,8.70
2018-04-13T20:13:51.877Z,7.72
2018-04-13T20:16:21.811Z,8.65
2018-04-13T20:18:51.132Z,6.87
2018-04-13T20:21:20.422Z,9.18
2018-04-13T20:23:49.710Z,7.60
2018-04-13T20:26:19.012Z,8.60
2018-04-13T20:28:48.300Z,6.78
2018-04-13T20:31:17.609Z,6.60
2018-04-13T20:33:46.931Z,6.60
2018-04-13T20:36:16.234Z,6.12
2018-04-13T20:38:45.533Z,6.95
2018-04-13T20:41:14.856Z,6.30
2018-04-13T20:43:44.166Z,6.32
2018-04-13T20:46:13.442Z,5.97
2018-04-13T20:48:42.746Z,6.32
2018-04-13T20:51:12.083Z,6.15
2018-04-13T20:53:41.361Z,6.47
2018-04-13T20:56:10.668Z,7.12
2018-04-13T20:58:40.757Z,6.68
2018-04-13T21:01:10.032Z,7.05
2018-04-13T21:03:39.335Z,6.40
2018-04-13T21:06:08.673Z,6.85
2018-04-13T21:08:38.022Z,7.05
2018-04-13T21:11:07.393Z,6.68
2018-04-13T21:13:37.444Z,8.05
2018-04-13T21:16:06.747Z,7.28
2018-04-13T21:18:36.076Z,7.35
2018-04-13T21:21:05.358Z,7.10
2018-04-13T21:23:34.632Z,7.12
2018-04-13T21:26:03.944Z,8.00
2018-04-13T21:28:33.241Z,7.40
2018-04-13T21:31:02.532Z,7.00
2018-04-13T21:33:31.812Z,7.05
2018-04-13T21:36:02.017Z,7.25
2018-04-13T21:38:31.331Z,7.28
2018-04-13T21:41:00.627Z,7.70
2018-04-13T21:43:29.936Z,8.05
2018-04-13T21:45:59.228Z,7.93
2018-04-13T21:48:28.531Z,8.02
2018-04-13T21:50:57.856Z,8.18
2018-04-13T21:53:27.134Z,7.57
2018-04-13T21:55:56.434Z,7.47
2018-04-13T21:58:25.749Z,7.68
2018-04-13T22:00:55.806Z,9.00
2018-04-13T22:03:25.107Z,7.95
2018-04-13T22:05:54.418Z,8.27
2018-04-13T22:08:23.714Z,7.43
2018-04-13T22:10:53.002Z,7.95
2018-04-13T22:13:29.097Z,8.13
2018-04-13T22:15:58.397Z,8.27
2018-04-13T22:18:27.688Z,8.73
2018-04-13T22:20:57.797Z,8.45
2018-04-13T22:23:27.093Z,7.85
2018-04-13T22:25:56.389Z,8.70
2018-04-13T22:28:25.694Z,8.27
2018-04-13T22:30:55.100Z,8.20
2018-04-13T22:33:24.388Z,8.20
2018-04-13T22:35:53.654Z,7.82
2018-04-13T22:38:23.697Z,7.43
2018-04-13T22:40:52.987Z,8.43
2018-04-13T22:43:22.280Z,9.80
2018-04-13T22:45:52.333Z,8.00
2018-04-13T22:48:21.901Z,8.05
2018-04-13T22:50:51.163Z,8.80
2018-04-13T22:53:20.474Z,9.02
2018-04-13T22:55:49.739Z,9.18
2018-04-13T22:58:19.004Z,8.80
2018-04-13T23:00:49.051Z,8.25
2018-04-13T23:03:18.355Z,7.50
2018-04-13T23:05:47.607Z,8.88
2018-04-13T23:08:17.675Z,8.25
2018-04-13T23:10:46.954Z,8.90
2018-04-13T23:13:16.941Z,7.72
2018-04-13T23:15:46.235Z,9.40
2018-04-13T23:18:15.521Z,10.15
2018-04-13T23:20:44.837Z,9.30
2018-04-13T23:23:14.105Z,9.80
2018-04-13T23:25:43.409Z,10.15
2018-04-13T23:28:12.685Z,9.70
2018-04-13T23:30:41.970Z,10.95
2018-04-13T23:33:11.269Z,10.38
2018-04-13T23:35:40.564Z,10.55
2018-04-13T23:38:09.856Z,11.18
2018-04-13T23:40:39.907Z,10.40
2018-04-13T23:43:09.193Z,10.23
2018-04-13T23:45:38.464Z,10.10
2018-04-13T23:48:08.566Z,10.35
2018-04-13T23:50:37.867Z,10.43
2018-04-13T23:53:07.145Z,10.70
2018-04-13T23:55:36.435Z,9.57
2018-04-13T23:58:05.717Z,11.40
